createdAt,value
2023-03-06T00:01:33.553Z,1.37
2023-03-06T00:04:08.109Z,1.46
2023-03-06T00:06:40.706Z,1.51
2023-03-06T00:09:13.802Z,1.54
2023-03-06T00:11:46.840Z,1.55
2023-03-06T00:14:19.201Z,1.57
2023-03-06T00:16:56.979Z,1.57
2023-03-06T00:19:30.173Z,1.51
2023-03-06T00:22:03.466Z,1.44
2023-03-06T00:24:36.553Z,1.35
2023-03-06T00:27:09.451Z,1.36
2023-03-06T00:29:42.651Z,1.37
2023-03-06T00:32:16.048Z,1.40
2023-03-06T00:34:51.708Z,1.43
2023-03-06T00:37:25.298Z,1.46
2023-03-06T00:39:58.286Z,1.46
2023-03-06T00:42:30.756Z,1.48
2023-03-06T00:45:03.169Z,1.45
2023-03-06T00:47:36.237Z,1.39
2023-03-06T00:50:10.073Z,1.31
2023-03-06T00:52:42.620Z,1.21
2023-03-06T00:55:15.106Z,1.07
2023-03-06T00:57:48.691Z,0.94
2023-03-06T01:00:22.255Z,0.81
2023-03-06T01:02:56.187Z,0.67
2023-03-06T01:05:30.134Z,0.49
2023-03-06T01:08:05.461Z,0.31
2023-03-06T01:10:41.732Z,0.29
2023-03-06T01:13:14.502Z,0.29
2023-03-06T01:15:47.500Z,0.25
2023-03-06T01:18:20.937Z,0.22
2023-03-06T01:20:53.573Z,0.20
2023-03-06T01:23:26.437Z,0.17
2023-03-06T01:26:00.159Z,0.10
2023-03-06T01:28:34.195Z,0.03
2023-03-06T01:31:06.572Z,0.03
2023-03-06T01:33:39.676Z,0.05
2023-03-06T01:36:13.181Z,0.03
2023-03-06T01:38:45.751Z,0.02
2023-03-06T01:41:21.303Z,-0.02
2023-03-06T01:43:54.453Z,-0.02
2023-03-06T01:46:44.892Z,-0.05
2023-03-06T01:49:26.798Z,-0.05
2023-03-06T01:52:17.528Z,-0.01
2023-03-06T01:55:04.031Z,-0.02
2023-03-06T01:57:50.369Z,0.01
2023-03-06T02:00:27.148Z,-0.06
2023-03-06T02:03:11.016Z,-0.06
2023-03-06T02:05:44.137Z,-0.06
2023-03-06T02:08:20.386Z,-0.02
2023-03-06T02:11:20.654Z,-0.03
2023-03-06T02:13:55.339Z,-0.04
2023-03-06T02:16:30.747Z,-0.05
2023-03-06T02:19:03.794Z,-0.04
2023-03-06T02:21:37.458Z,-0.04
2023-03-06T02:24:43.857Z,-0.01
2023-03-06T02:27:17.604Z,0.08
2023-03-06T02:29:49.928Z,0.13
2023-03-06T02:32:22.543Z,0.13
2023-03-06T02:34:57.927Z,0.08
2023-03-06T02:37:30.607Z,0.09
2023-03-06T02:40:09.039Z,0.09
2023-03-06T02:42:47.716Z,0.06
2023-03-06T02:45:28.085Z,0.05
2023-03-06T02:48:02.206Z,0.04
2023-03-06T02:50:36.054Z,0.08
2023-03-06T02:53:08.723Z,0.08
2023-03-06T02:55:41.357Z,0.07
2023-03-06T02:58:14.583Z,0.10
2023-03-06T03:00:47.749Z,0.11
2023-03-06T03:03:21.678Z,0.15
2023-03-06T03:05:53.998Z,0.19
2023-03-06T03:08:28.810Z,0.21
2023-03-06T03:11:03.165Z,0.23
2023-03-06T03:13:37.788Z,0.24
2023-03-06T03:16:15.472Z,0.27
2023-03-06T03:18:50.418Z,0.26
2023-03-06T03:21:24.476Z,0.23
2023-03-06T03:23:58.443Z,0.25
2023-03-06T03:26:32.350Z,0.25
2023-03-06T03:29:06.571Z,0.26
2023-03-06T03:31:39.656Z,0.25
2023-03-06T03:34:12.090Z,0.28
2023-03-06T03:36:46.864Z,0.28
2023-03-06T03:39:20.177Z,0.31
2023-03-06T03:41:53.169Z,0.26
2023-03-06T03:44:25.807Z,0.24
2023-03-06T03:46:59.652Z,0.23
2023-03-06T03:49:32.118Z,0.24
2023-03-06T03:52:05.975Z,0.27
2023-03-06T03:54:39.484Z,0.30
2023-03-06T03:57:11.797Z,0.27
2023-03-06T03:59:46.513Z,0.31
2023-03-06T04:02:23.974Z,0.32
2023-03-06T04:05:01.377Z,0.32
2023-03-06T04:07:34.370Z,0.29
2023-03-06T04:10:08.430Z,0.31
2023-03-06T04:12:40.404Z,0.32
2023-03-06T04:15:14.258Z,0.36
2023-03-06T04:17:47.069Z,0.37
2023-03-06T04:20:21.263Z,0.39
2023-03-06T04:22:55.015Z,0.39
2023-03-06T04:25:27.690Z,0.40
2023-03-06T04:28:00.611Z,0.37
2023-03-06T04:30:33.945Z,0.34
2023-03-06T04:33:07.270Z,0.34
2023-03-06T04:35:40.218Z,0.39
2023-03-06T04:38:14.443Z,0.37
2023-03-06T04:40:49.803Z,0.38
2023-03-06T04:43:23.586Z,0.35
2023-03-06T04:45:57.001Z,0.34
2023-03-06T04:48:30.146Z,0.33
2023-03-06T04:51:02.549Z,0.30
2023-03-06T04:53:36.314Z,0.34
2023-03-06T04:56:09.578Z,0.35
2023-03-06T04:58:44.137Z,0.37
2023-03-06T05:01:16.891Z,0.38
2023-03-06T05:03:50.168Z,0.39
2023-03-06T05:06:22.892Z,0.40
2023-03-06T05:08:55.503Z,0.43
2023-03-06T05:11:28.012Z,0.47
2023-03-06T05:14:01.137Z,0.49
2023-03-06T05:16:34.151Z,0.53
2023-03-06T05:19:06.900Z,0.59
2023-03-06T05:21:39.430Z,0.58
2023-03-06T05:24:12.067Z,0.60
2023-03-06T05:26:44.889Z,0.64
2023-03-06T05:29:17.318Z,0.70
2023-03-06T05:31:49.796Z,0.78
2023-03-06T05:34:22.155Z,0.82
2023-03-06T05:36:55.042Z,0.93
2023-03-06T05:39:28.449Z,1.02
2023-03-06T05:42:01.188Z,1.14
2023-03-06T05:44:36.091Z,1.19
2023-03-06T05:47:09.355Z,1.24
2023-03-06T05:49:41.984Z,1.27
2023-03-06T05:52:15.468Z,1.29
2023-03-06T05:54:52.087Z,1.30
2023-03-06T05:57:25.373Z,1.34
2023-03-06T05:59:58.975Z,1.34
2023-03-06T06:02:31.697Z,1.41
2023-03-06T06:05:05.142Z,1.48
2023-03-06T06:07:38.222Z,1.58
2023-03-06T06:10:12.735Z,1.67
2023-03-06T06:12:45.271Z,1.65
2023-03-06T06:15:17.989Z,1.57
2023-03-06T06:17:51.959Z,1.56
2023-03-06T06:20:24.703Z,1.58
2023-03-06T06:22:57.898Z,1.63
2023-03-06T06:25:30.503Z,1.67
2023-03-06T06:28:03.641Z,1.70
2023-03-06T06:30:36.617Z,1.70
2023-03-06T06:33:10.007Z,1.72
2023-03-06T06:35:42.300Z,1.69
2023-03-06T06:38:15.364Z,1.63
2023-03-06T06:41:18.070Z,1.61
2023-03-06T06:43:23.143Z,1.66
2023-03-06T06:46:08.854Z,1.68
2023-03-06T06:48:29.846Z,1.69
2023-03-06T06:51:02.373Z,1.75
2023-03-06T06:53:34.988Z,1.76
2023-03-06T06:56:08.874Z,1.62
2023-03-06T06:58:42.860Z,1.66
2023-03-06T07:01:16.731Z,1.71
2023-03-06T07:03:49.786Z,1.76
2023-03-06T07:06:23.085Z,1.83
2023-03-06T07:08:57.552Z,1.95
2023-03-06T07:11:30.340Z,2.07
2023-03-06T07:14:03.327Z,2.18
2023-03-06T07:16:35.947Z,2.63
2023-03-06T07:19:09.193Z,3.46
2023-03-06T07:21:42.017Z,4.32
2023-03-06T07:24:14.645Z,5.21
2023-03-06T07:26:50.792Z,5.79
2023-03-06T07:29:24.261Z,5.82
2023-03-06T07:31:56.682Z,5.49
2023-03-06T07:34:29.970Z,5.15
2023-03-06T07:37:02.467Z,4.89
2023-03-06T07:39:35.789Z,4.79
2023-03-06T07:42:08.589Z,4.99
2023-03-06T07:44:43.361Z,5.09
2023-03-06T07:47:16.520Z,4.95
2023-03-06T07:49:48.931Z,4.38
2023-03-06T07:52:21.689Z,3.80
2023-03-06T07:54:54.194Z,3.51
2023-03-06T07:57:26.717Z,3.61
2023-03-06T07:59:59.321Z,4.29
2023-03-06T08:02:32.507Z,5.15
2023-03-06T08:05:05.162Z,5.57
2023-03-06T08:07:37.851Z,5.72
2023-03-06T08:10:10.932Z,5.77
2023-03-06T08:12:43.984Z,5.62
2023-03-06T08:15:16.463Z,5.25
2023-03-06T08:17:50.328Z,4.74
2023-03-06T08:20:23.292Z,4.34
2023-03-06T08:22:55.887Z,3.98
2023-03-06T08:25:28.478Z,3.79
2023-03-06T08:28:01.789Z,3.52
2023-03-06T08:30:34.609Z,3.43
2023-03-06T08:33:07.224Z,3.56
2023-03-06T08:35:39.837Z,3.99
2023-03-06T08:38:12.661Z,4.61
2023-03-06T08:40:45.345Z,5.02
2023-03-06T08:43:18.521Z,5.17
2023-03-06T08:45:55.704Z,4.89
2023-03-06T08:48:28.806Z,4.53
2023-03-06T08:51:01.348Z,4.18
2023-03-06T08:53:43.201Z,3.91
2023-03-06T08:56:08.652Z,3.52
2023-03-06T08:58:41.031Z,3.35
2023-03-06T09:01:22.811Z,3.47
2023-03-06T09:03:57.433Z,4.02
2023-03-06T09:06:32.087Z,5.11
2023-03-06T09:09:05.012Z,5.82
2023-03-06T09:11:38.323Z,6.06
2023-03-06T09:14:10.905Z,6.21
2023-03-06T09:16:43.522Z,6.58
2023-03-06T09:19:16.024Z,7.39
2023-03-06T09:21:49.333Z,7.83
2023-03-06T09:24:21.788Z,7.46
2023-03-06T09:26:54.358Z,6.81
2023-03-06T09:29:29.466Z,6.45
2023-03-06T09:32:03.014Z,6.53
2023-03-06T09:34:36.624Z,6.60
2023-03-06T09:37:09.987Z,7.05
2023-03-06T09:39:42.490Z,7.82
2023-03-06T09:42:21.520Z,8.28
2023-03-06T09:44:57.216Z,8.31
2023-03-06T09:47:39.722Z,8.05
2023-03-06T09:50:31.905Z,8.19
2023-03-06T09:53:16.753Z,7.93
2023-03-06T09:56:08.772Z,8.05
2023-03-06T09:58:45.489Z,8.51
2023-03-06T10:01:27.727Z,9.11
2023-03-06T10:04:35.026Z,9.74
2023-03-06T10:07:18.063Z,10.00
2023-03-06T10:10:07.058Z,10.33
2023-03-06T10:12:44.418Z,10.67
2023-03-06T10:15:21.328Z,11.11
2023-03-06T10:17:54.479Z,11.16
2023-03-06T10:20:40.496Z,11.29
2023-03-06T10:23:51.420Z,11.29
2023-03-06T10:26:28.072Z,11.40
2023-03-06T10:29:26.386Z,11.11
2023-03-06T10:32:15.562Z,10.47
2023-03-06T10:34:48.850Z,9.73
2023-03-06T10:37:23.035Z,8.97
2023-03-06T10:39:59.970Z,8.69
2023-03-06T10:42:32.788Z,8.85
2023-03-06T10:45:12.838Z,9.50
2023-03-06T10:50:31.484Z,10.73
2023-03-06T10:53:10.556Z,10.98
2023-03-06T10:55:43.753Z,11.48
2023-03-06T10:58:29.385Z,11.70
2023-03-06T11:01:22.887Z,11.70
2023-03-06T11:03:55.345Z,11.86
2023-03-06T11:06:38.135Z,11.76
2023-03-06T11:09:23.568Z,11.83
2023-03-06T11:11:57.910Z,12.08
2023-03-06T11:14:30.485Z,12.34
2023-03-06T11:17:03.492Z,12.51
2023-03-06T11:19:36.353Z,12.58
2023-03-06T11:22:19.726Z,12.67
2023-03-06T11:24:52.683Z,12.78
2023-03-06T11:27:33.326Z,12.75
2023-03-06T11:30:08.936Z,12.71
2023-03-06T11:32:57.739Z,12.60
2023-03-06T11:35:35.889Z,12.58
2023-03-06T11:38:25.440Z,12.60
2023-03-06T11:41:03.592Z,12.73
2023-03-06T11:43:56.798Z,12.99
2023-03-06T11:46:42.823Z,13.06
2023-03-06T11:49:41.169Z,13.30
2023-03-06T11:52:20.917Z,13.42
2023-03-06T11:54:56.847Z,13.45
2023-03-06T11:57:49.707Z,13.29
2023-03-06T12:00:55.541Z,12.56
2023-03-06T12:03:44.622Z,12.27
2023-03-06T12:06:57.090Z,11.86
2023-03-06T12:09:43.608Z,11.28
2023-03-06T12:12:57.328Z,10.19
2023-03-06T12:16:16.393Z,9.13
2023-03-06T12:19:30.350Z,8.56
2023-03-06T12:22:37.651Z,8.21
2023-03-06T12:25:45.993Z,7.50
2023-03-06T12:28:47.087Z,7.05
2023-03-06T12:32:08.826Z,6.85
2023-03-06T12:35:17.802Z,6.75
2023-03-06T12:38:22.311Z,6.66
2023-03-06T12:41:33.287Z,6.64
2023-03-06T12:44:45.417Z,6.61
2023-03-06T12:47:22.066Z,6.55
2023-03-06T12:50:02.020Z,6.52
2023-03-06T12:52:34.930Z,6.39
2023-03-06T12:55:08.851Z,6.17
2023-03-06T12:57:42.155Z,6.11
2023-03-06T13:00:37.797Z,6.15
2023-03-06T13:03:40.263Z,5.98
2023-03-06T13:06:36.536Z,5.46
2023-03-06T13:09:29.314Z,4.97
2023-03-06T13:12:10.241Z,4.75
2023-03-06T13:14:54.200Z,4.62
2023-03-06T13:17:29.139Z,4.49
2023-03-06T13:20:19.849Z,4.31
2023-03-06T13:22:52.721Z,4.26
2023-03-06T13:25:33.572Z,4.28
2023-03-06T13:28:06.810Z,4.37
2023-03-06T13:30:43.914Z,4.46
2023-03-06T13:33:35.068Z,4.41
2023-03-06T13:36:33.687Z,4.34
2023-03-06T13:39:09.455Z,4.26
2023-03-06T13:41:55.863Z,4.32
2023-03-06T13:44:33.182Z,4.35
2023-03-06T13:47:21.682Z,4.24
2023-03-06T13:49:54.006Z,4.17
2023-03-06T13:52:34.408Z,4.11
2023-03-06T13:55:17.879Z,4.04
2023-03-06T13:58:23.645Z,4.02
2023-03-06T14:01:23.680Z,4.14
2023-03-06T14:04:44.666Z,4.26
2023-03-06T14:07:34.834Z,4.32
2023-03-06T14:10:21.112Z,4.36
2023-03-06T14:13:04.923Z,4.41
2023-03-06T14:15:49.512Z,4.43
2023-03-06T14:18:41.273Z,4.40
2023-03-06T14:21:15.994Z,4.43
2023-03-06T14:23:47.644Z,4.40
2023-03-06T14:26:23.115Z,4.42
2023-03-06T14:29:20.596Z,4.42
2023-03-06T14:31:56.003Z,4.43
2023-03-06T14:34:35.963Z,4.44
2023-03-06T14:37:30.123Z,4.46
2023-03-06T14:40:02.454Z,4.48
2023-03-06T14:42:35.312Z,4.41
2023-03-06T14:45:12.618Z,4.36
2023-03-06T14:47:53.448Z,4.31
2023-03-06T14:50:30.820Z,4.23
2023-03-06T14:53:26.194Z,4.22
2023-03-06T14:56:06.439Z,4.13
2023-03-06T14:59:01.452Z,4.02
2023-03-06T15:01:38.446Z,4.06
2023-03-06T15:04:40.410Z,4.09
2023-03-06T15:07:19.639Z,4.12
2023-03-06T15:09:53.880Z,4.09
2023-03-06T15:12:45.000Z,4.04
2023-03-06T15:15:22.457Z,4.04
2023-03-06T15:17:55.527Z,3.98
2023-03-06T15:21:20.280Z,3.91
2023-03-06T15:23:55.489Z,3.90
2023-03-06T15:26:33.465Z,3.80
2023-03-06T15:29:19.005Z,3.77
2023-03-06T15:31:52.099Z,3.76
2023-03-06T15:34:24.723Z,3.72
2023-03-06T15:36:59.546Z,3.59
2023-03-06T15:39:38.952Z,3.56
2023-03-06T15:42:25.206Z,3.52
2023-03-06T15:45:02.563Z,3.49
2023-03-06T15:47:35.116Z,3.46
2023-03-06T15:50:30.395Z,3.39
2023-03-06T15:53:02.049Z,3.39
2023-03-06T15:55:34.621Z,3.37
2023-03-06T15:58:07.125Z,3.34
2023-03-06T16:00:39.862Z,3.35
2023-03-06T16:03:13.233Z,3.28
2023-03-06T16:05:47.491Z,3.27
2023-03-06T16:08:20.042Z,3.22
2023-03-06T16:10:54.774Z,3.22
2023-03-06T16:13:29.005Z,3.15
2023-03-06T16:16:01.488Z,3.11
2023-03-06T16:18:34.559Z,3.09
2023-03-06T16:21:07.444Z,3.08
2023-03-06T16:23:41.283Z,3.09
2023-03-06T16:26:27.682Z,3.10
2023-03-06T16:29:01.073Z,3.10
2023-03-06T16:31:33.922Z,3.10
2023-03-06T16:34:07.849Z,3.09
2023-03-06T16:36:40.247Z,3.10
2023-03-06T16:39:37.520Z,3.09
2023-03-06T16:42:10.272Z,3.08
2023-03-06T16:44:42.878Z,3.03
2023-03-06T16:47:16.138Z,2.95
2023-03-06T16:49:48.654Z,2.91
2023-03-06T16:52:22.227Z,2.89
2023-03-06T16:54:55.864Z,2.90
2023-03-06T16:57:30.024Z,2.88
2023-03-06T17:00:03.318Z,2.87
2023-03-06T17:02:36.052Z,2.86
2023-03-06T17:05:09.263Z,2.83
2023-03-06T17:07:42.576Z,2.81
2023-03-06T17:10:16.873Z,2.74
2023-03-06T17:12:50.349Z,2.69
2023-03-06T17:15:23.471Z,2.68
2023-03-06T17:17:58.058Z,2.64
2023-03-06T17:20:31.296Z,2.62
2023-03-06T17:23:04.056Z,2.60
2023-03-06T17:25:38.226Z,2.56
2023-03-06T17:28:11.712Z,2.49
2023-03-06T17:30:44.184Z,2.43
2023-03-06T17:33:17.671Z,2.34
2023-03-06T17:35:50.726Z,2.30
2023-03-06T17:38:23.916Z,2.27
2023-03-06T17:40:56.336Z,2.25
2023-03-06T17:43:28.697Z,2.24
2023-03-06T17:46:05.798Z,2.23
2023-03-06T17:48:38.353Z,2.23
2023-03-06T17:51:12.163Z,2.20
2023-03-06T17:53:45.173Z,2.18
2023-03-06T17:56:18.999Z,2.14
2023-03-06T17:58:51.632Z,2.09
2023-03-06T18:01:26.921Z,2.07
2023-03-06T18:04:00.107Z,2.03
2023-03-06T18:06:57.084Z,2.03
2023-03-06T18:09:39.403Z,1.99
2023-03-06T18:12:11.815Z,1.99
2023-03-06T18:14:44.532Z,1.97
2023-03-06T18:17:17.356Z,1.95
2023-03-06T18:19:49.852Z,1.92
2023-03-06T18:22:23.199Z,1.92
2023-03-06T18:24:55.628Z,1.93
2023-03-06T18:27:28.299Z,1.93
2023-03-06T18:30:00.878Z,1.96
2023-03-06T18:32:33.626Z,1.98
2023-03-06T18:35:06.511Z,2.02
2023-03-06T18:37:39.424Z,2.02
2023-03-06T18:40:13.901Z,2.01
2023-03-06T18:42:48.681Z,1.96
2023-03-06T18:45:21.312Z,1.96
2023-03-06T18:47:53.701Z,1.92
2023-03-06T18:50:27.141Z,1.94
2023-03-06T18:52:59.545Z,1.93
2023-03-06T18:55:32.775Z,1.88
2023-03-06T18:58:05.925Z,1.85
2023-03-06T19:00:40.086Z,1.85
2023-03-06T19:03:13.358Z,1.87
2023-03-06T19:05:49.021Z,1.83
2023-03-06T19:08:21.028Z,1.81
2023-03-06T19:10:53.846Z,1.75
2023-03-06T19:13:26.873Z,1.74
2023-03-06T19:15:59.259Z,1.71
2023-03-06T19:18:32.389Z,1.70
2023-03-06T19:21:13.135Z,1.69
2023-03-06T19:23:47.527Z,1.70
2023-03-06T19:26:20.017Z,1.69
2023-03-06T19:28:52.667Z,1.65
2023-03-06T19:31:27.656Z,1.68
2023-03-06T19:34:00.650Z,1.73
2023-03-06T19:36:34.423Z,1.81
2023-03-06T19:39:09.638Z,1.85
2023-03-06T19:41:42.123Z,1.87
2023-03-06T19:44:16.345Z,1.89
2023-03-06T19:46:58.824Z,1.95
2023-03-06T19:49:31.423Z,1.96
2023-03-06T19:52:05.443Z,1.97
2023-03-06T19:54:38.573Z,1.95
2023-03-06T19:57:12.142Z,2.00
2023-03-06T19:59:44.865Z,2.05
2023-03-06T20:02:20.211Z,2.09
2023-03-06T20:04:53.577Z,2.13
2023-03-06T20:07:26.345Z,2.11
2023-03-06T20:10:00.606Z,2.12
2023-03-06T20:12:34.624Z,2.11
2023-03-06T20:15:08.990Z,2.16
2023-03-06T20:17:41.389Z,2.18
2023-03-06T20:20:14.941Z,2.18
2023-03-06T20:22:47.796Z,2.22
2023-03-06T20:25:20.731Z,2.20
2023-03-06T20:27:53.487Z,2.20
2023-03-06T20:30:29.500Z,2.18
2023-03-06T20:32:59.607Z,2.18
2023-03-06T20:35:32.101Z,2.20
2023-03-06T20:38:05.291Z,2.21
2023-03-06T20:41:02.666Z,2.19
2023-03-06T20:43:35.963Z,2.17
2023-03-06T20:46:08.817Z,2.19
2023-03-06T20:48:42.183Z,2.18
2023-03-06T20:51:28.103Z,2.15
2023-03-06T20:54:01.834Z,2.15
2023-03-06T20:56:36.907Z,2.13
2023-03-06T20:59:11.861Z,2.08
2023-03-06T21:01:45.958Z,2.05
2023-03-06T21:04:20.361Z,2.04
2023-03-06T21:06:55.015Z,2.01
2023-03-06T21:09:27.649Z,2.03
2023-03-06T21:12:00.728Z,2.01
2023-03-06T21:14:33.350Z,2.02
2023-03-06T21:17:06.010Z,2.00
2023-03-06T21:19:40.040Z,1.98
2023-03-06T21:22:13.781Z,1.97
2023-03-06T21:24:46.168Z,1.98
2023-03-06T21:27:19.125Z,2.00
2023-03-06T21:29:51.542Z,2.02
2023-03-06T21:32:24.075Z,2.00
2023-03-06T21:34:56.658Z,1.96
2023-03-06T21:37:29.849Z,1.95
2023-03-06T21:40:02.454Z,1.93
2023-03-06T21:42:37.348Z,1.92
2023-03-06T21:45:09.577Z,1.86
2023-03-06T21:47:43.042Z,1.79
2023-03-06T21:50:16.150Z,1.74
2023-03-06T21:52:48.558Z,1.76
2023-03-06T21:55:23.180Z,1.74
2023-03-06T21:57:56.513Z,1.73
2023-03-06T22:00:29.194Z,1.69
2023-03-06T22:03:03.817Z,1.66
2023-03-06T22:05:36.277Z,1.65
2023-03-06T22:08:09.910Z,1.65
2023-03-06T22:10:43.191Z,1.68
2023-03-06T22:13:16.394Z,1.64
2023-03-06T22:15:55.183Z,1.61
2023-03-06T22:18:28.204Z,1.54
2023-03-06T22:21:01.011Z,1.50
2023-03-06T22:23:35.031Z,1.44
2023-03-06T22:26:09.372Z,1.41
2023-03-06T22:28:42.898Z,1.40
2023-03-06T22:31:18.643Z,1.41
2023-03-06T22:33:53.340Z,1.43
2023-03-06T22:36:26.228Z,1.47
2023-03-06T22:39:01.057Z,1.52
2023-03-06T22:41:33.651Z,1.55
2023-03-06T22:44:06.198Z,1.57
2023-03-06T22:46:39.440Z,1.61
2023-03-06T22:49:13.251Z,1.65
2023-03-06T22:51:45.802Z,1.70
2023-03-06T22:54:18.210Z,1.72
2023-03-06T22:56:50.599Z,1.74
2023-03-06T22:59:23.544Z,1.76
2023-03-06T23:01:57.741Z,1.73
2023-03-06T23:04:30.509Z,1.76
2023-03-06T23:07:04.724Z,1.75
2023-03-06T23:09:37.823Z,1.77
2023-03-06T23:12:27.920Z,1.78
2023-03-06T23:15:18.474Z,1.80
2023-03-06T23:18:08.867Z,1.83
2023-03-06T23:20:59.708Z,1.88
2023-03-06T23:23:52.207Z,1.89
2023-03-06T23:26:27.748Z,1.91
2023-03-06T23:29:00.728Z,1.92
2023-03-06T23:31:33.571Z,1.91
2023-03-06T23:34:06.298Z,1.87
2023-03-06T23:36:39.179Z,1.89
2023-03-06T23:39:13.714Z,1.91
2023-03-06T23:41:46.730Z,1.91
2023-03-06T23:44:19.770Z,1.90
2023-03-06T23:46:53.303Z,1.88
2023-03-06T23:49:26.250Z,1.91
2023-03-06T23:51:59.386Z,1.91
2023-03-06T23:54:33.374Z,1.89
2023-03-06T23:57:05.734Z,1.84
2023-03-06T23:59:38.282Z,1.82
